createdAt,value
2023-01-10T00:04:41.877Z,3.64
2023-01-10T00:09:44.577Z,3.65
2023-01-10T00:14:47.376Z,3.67
2023-01-10T00:19:50.067Z,3.67
2023-01-10T00:24:52.775Z,3.68
2023-01-10T00:29:58.148Z,3.70
2023-01-10T00:35:00.820Z,3.70
2023-01-10T00:40:04.594Z,3.73
2023-01-10T00:45:08.057Z,3.79
2023-01-10T00:50:11.829Z,3.83
2023-01-10T00:55:14.588Z,3.84
2023-01-10T01:00:17.378Z,3.83
2023-01-10T01:05:20.814Z,3.84
2023-01-10T01:10:26.432Z,3.81
2023-01-10T01:15:29.756Z,3.78
2023-01-10T01:20:33.537Z,3.77
2023-01-10T01:25:36.332Z,3.77
2023-01-10T01:30:39.128Z,3.76
2023-01-10T01:35:43.520Z,3.79
2023-01-10T01:40:46.468Z,3.82
2023-01-10T01:45:49.547Z,3.81
2023-01-10T01:51:07.970Z,3.80
2023-01-10T01:56:32.846Z,3.79
2023-01-10T02:01:38.906Z,3.85
2023-01-10T02:06:42.230Z,3.92
2023-01-10T02:11:45.157Z,3.94
2023-01-10T02:16:47.808Z,3.90
2023-01-10T02:22:24.603Z,3.85
2023-01-10T02:27:40.335Z,3.86
2023-01-10T02:33:05.670Z,3.95
2023-01-10T02:38:23.434Z,4.01
2023-01-10T02:43:34.855Z,4.02
2023-01-10T02:48:37.555Z,4.05
2023-01-10T02:53:45.210Z,4.02
2023-01-10T02:59:15.328Z,3.94
2023-01-10T03:04:34.877Z,3.89
2023-01-10T03:09:45.607Z,3.86
2023-01-10T03:14:50.433Z,3.81
2023-01-10T03:19:58.963Z,3.80
2023-01-10T03:25:07.180Z,3.82
2023-01-10T03:30:15.565Z,3.83
2023-01-10T03:35:22.634Z,3.84
2023-01-10T03:40:41.315Z,3.83
2023-01-10T03:45:51.735Z,3.77
2023-01-10T03:50:55.321Z,3.68
2023-01-10T03:55:58.173Z,3.69
2023-01-10T04:01:01.105Z,3.72
2023-01-10T04:06:05.035Z,3.72
2023-01-10T04:11:07.703Z,3.71
2023-01-10T04:16:11.419Z,3.72
2023-01-10T04:21:14.262Z,3.70
2023-01-10T04:26:17.028Z,3.62
2023-01-10T04:31:20.649Z,3.56
2023-01-10T04:36:23.594Z,3.55
2023-01-10T04:41:26.382Z,3.53
2023-01-10T04:46:29.278Z,3.49
2023-01-10T04:51:32.082Z,3.45
2023-01-10T04:56:34.916Z,3.30
2023-01-10T05:01:39.313Z,3.15
2023-01-10T05:06:42.159Z,3.09
2023-01-10T05:11:44.909Z,3.00
2023-01-10T05:16:47.689Z,2.87
2023-01-10T05:21:52.294Z,2.74
2023-01-10T05:26:55.066Z,2.68
2023-01-10T05:31:57.776Z,2.65
2023-01-10T05:37:00.473Z,2.66
2023-01-10T05:42:04.082Z,2.67
2023-01-10T05:47:06.891Z,2.72
2023-01-10T05:52:09.586Z,2.74
2023-01-10T05:57:12.643Z,2.73
2023-01-10T06:02:15.469Z,2.75
2023-01-10T06:07:18.398Z,2.78
2023-01-10T06:12:21.406Z,2.81
2023-01-10T06:17:24.088Z,2.83
2023-01-10T06:22:28.130Z,2.89
2023-01-10T06:27:30.931Z,2.88
2023-01-10T06:32:33.737Z,2.82
2023-01-10T06:37:36.623Z,2.75
2023-01-10T06:42:40.641Z,2.77
2023-01-10T06:47:43.372Z,2.74
2023-01-10T06:52:49.658Z,2.71
2023-01-10T06:58:03.231Z,2.72
2023-01-10T07:03:06.130Z,2.77
2023-01-10T07:08:10.376Z,2.82
2023-01-10T07:13:16.491Z,2.84
2023-01-10T07:18:19.266Z,2.79
2023-01-10T07:23:22.445Z,2.78
2023-01-10T07:28:25.145Z,2.75
2023-01-10T07:33:28.931Z,2.75
2023-01-10T07:38:31.596Z,2.81
2023-01-10T07:43:35.279Z,2.91
2023-01-10T07:48:39.214Z,2.95
2023-01-10T07:53:44.043Z,3.01
2023-01-10T07:58:51.253Z,3.15
2023-01-10T08:03:54.217Z,3.26
2023-01-10T08:08:57.233Z,3.28
2023-01-10T08:13:59.918Z,3.32
2023-01-10T08:19:03.693Z,3.38
2023-01-10T08:24:12.276Z,3.43
2023-01-10T08:29:16.167Z,3.54
2023-01-10T08:34:19.254Z,3.60
2023-01-10T08:39:22.816Z,3.59
2023-01-10T08:44:26.728Z,3.52
2023-01-10T08:49:29.454Z,3.55
2023-01-10T08:54:33.209Z,3.64
2023-01-10T09:24:47.584Z,4.46
2023-01-10T09:29:50.294Z,4.57
2023-01-10T09:34:53.198Z,4.54
2023-01-10T09:39:56.031Z,4.49
2023-01-10T09:45:19.163Z,4.45
2023-01-10T09:50:29.795Z,4.37
2023-01-10T09:55:36.572Z,4.32
2023-01-10T10:00:51.531Z,4.30
2023-01-10T10:06:03.802Z,4.33
2023-01-10T10:11:25.422Z,4.32
2023-01-10T10:16:40.746Z,4.30
2023-01-10T10:22:00.590Z,4.35
2023-01-10T10:27:16.765Z,4.31
2023-01-10T10:32:39.900Z,4.28
2023-01-10T10:37:48.057Z,4.24
2023-01-10T10:42:56.323Z,4.31
2023-01-10T10:48:19.496Z,4.31
2023-01-10T10:53:22.348Z,4.31
2023-01-10T10:58:26.197Z,4.39
2023-01-10T11:03:38.770Z,4.48
2023-01-10T11:08:45.334Z,4.53
2023-01-10T11:13:55.710Z,4.44
2023-01-10T11:19:10.852Z,4.26
2023-01-10T11:24:43.759Z,4.19
2023-01-10T11:29:52.512Z,4.21
2023-01-10T11:35:01.959Z,4.13
2023-01-10T11:40:23.791Z,4.04
2023-01-10T11:45:28.947Z,3.96
2023-01-10T11:50:35.635Z,3.99
2023-01-10T11:55:39.696Z,4.00
2023-01-10T12:00:47.424Z,3.92
2023-01-10T12:05:54.081Z,3.77
2023-01-10T12:11:02.534Z,3.74
2023-01-10T12:16:27.222Z,3.85
2023-01-10T12:21:44.681Z,3.96
2023-01-10T12:26:50.942Z,4.00
2023-01-10T12:31:56.319Z,4.04
2023-01-10T12:37:16.019Z,4.06
2023-01-10T12:43:02.670Z,4.13
2023-01-10T12:48:24.382Z,4.19
2023-01-10T12:53:39.236Z,4.31
2023-01-10T12:58:46.075Z,4.46
2023-01-10T13:03:56.277Z,4.57
2023-01-10T13:09:04.247Z,4.46
2023-01-10T13:14:14.784Z,4.34
2023-01-10T13:19:20.060Z,4.44
2023-01-10T13:24:29.076Z,4.51
2023-01-10T13:29:40.868Z,4.51
2023-01-10T13:34:43.822Z,4.55
2023-01-10T13:39:57.083Z,4.53
2023-01-10T13:45:01.736Z,4.43
2023-01-10T13:50:34.831Z,4.39
2023-01-10T13:55:42.739Z,4.38
2023-01-10T14:01:10.041Z,4.33
2023-01-10T14:06:21.919Z,4.27
2023-01-10T14:11:34.803Z,4.19
2023-01-10T14:21:45.571Z,3.92
2023-01-10T14:26:49.884Z,3.82
2023-01-10T14:31:53.510Z,3.70
2023-01-10T14:37:03.144Z,3.50
2023-01-10T14:42:09.044Z,3.26
2023-01-10T14:47:34.607Z,3.18
2023-01-10T14:52:42.746Z,3.09
2023-01-10T14:58:00.509Z,2.95
2023-01-10T15:03:04.246Z,2.81
2023-01-10T15:08:23.884Z,2.77
2023-01-10T15:13:29.972Z,2.64
2023-01-10T15:18:44.499Z,2.48
2023-01-10T15:23:47.727Z,2.38
2023-01-10T15:29:09.383Z,2.35
2023-01-10T15:34:21.294Z,2.33
2023-01-10T15:39:29.104Z,2.34
2023-01-10T15:44:38.259Z,2.41
2023-01-10T15:49:52.949Z,2.43
2023-01-10T15:54:57.103Z,2.39
2023-01-10T16:00:00.384Z,2.38
2023-01-10T16:05:22.145Z,2.29
2023-01-10T16:10:27.475Z,2.26
2023-01-10T16:15:32.839Z,2.31
2023-01-10T16:20:38.320Z,2.33
2023-01-10T16:25:45.639Z,2.33
2023-01-10T16:30:48.951Z,2.33
2023-01-10T16:35:59.198Z,2.39
2023-01-10T16:41:23.507Z,2.41
2023-01-10T16:46:26.885Z,2.47
2023-01-10T16:51:32.483Z,2.52
2023-01-10T16:56:35.311Z,2.56
2023-01-10T17:01:44.211Z,2.54
2023-01-10T17:06:47.549Z,2.52
2023-01-10T17:11:56.836Z,2.55
2023-01-10T17:16:59.701Z,2.65
2023-01-10T17:22:02.408Z,2.68
2023-01-10T17:27:05.225Z,2.66
2023-01-10T17:32:08.521Z,2.66
2023-01-10T17:37:11.368Z,2.78
2023-01-10T17:42:14.141Z,2.81
2023-01-10T17:47:16.977Z,2.81
2023-01-10T17:52:19.686Z,2.79
2023-01-10T17:57:24.114Z,2.67
2023-01-10T18:02:27.144Z,2.60
2023-01-10T18:07:30.067Z,2.52
2023-01-10T18:12:32.805Z,2.45
2023-01-10T18:17:35.605Z,2.34
2023-01-10T18:22:57.726Z,2.25
2023-01-10T18:28:00.753Z,2.23
2023-01-10T18:33:03.451Z,2.20
2023-01-10T18:38:06.248Z,2.19
2023-01-10T18:43:14.366Z,2.20
2023-01-10T18:48:18.407Z,2.16
2023-01-10T18:53:21.759Z,2.12
2023-01-10T18:58:30.160Z,2.13
2023-01-10T19:03:33.581Z,2.15
2023-01-10T19:08:39.120Z,2.20
2023-01-10T19:13:42.770Z,2.26
2023-01-10T19:18:51.680Z,2.39
2023-01-10T19:23:55.870Z,2.51
2023-01-10T19:28:59.150Z,2.50
2023-01-10T19:34:02.254Z,2.53
2023-01-10T19:39:07.120Z,2.60
2023-01-10T19:44:16.711Z,2.66
2023-01-10T19:49:20.111Z,2.77
2023-01-10T19:54:24.353Z,2.84
2023-01-10T19:59:28.040Z,2.91
2023-01-10T20:04:31.192Z,2.95
2023-01-10T20:09:34.150Z,2.93
2023-01-10T20:14:36.844Z,2.95
2023-01-10T20:19:40.883Z,3.02
2023-01-10T20:24:43.566Z,3.02
2023-01-10T20:29:46.384Z,2.99
2023-01-10T20:34:49.849Z,3.07
2023-01-10T20:39:53.004Z,3.19
2023-01-10T20:44:55.703Z,3.28
2023-01-10T20:49:58.374Z,3.25
2023-01-10T20:55:01.069Z,3.26
2023-01-10T21:00:04.419Z,3.24
2023-01-10T21:05:07.212Z,3.23
2023-01-10T21:10:10.602Z,3.24
2023-01-10T21:15:14.256Z,3.30
2023-01-10T21:20:17.174Z,3.37
2023-01-10T21:25:19.856Z,3.43
2023-01-10T21:30:22.743Z,3.45
2023-01-10T21:35:25.455Z,3.42
2023-01-10T21:40:29.019Z,3.36
2023-01-10T21:45:32.593Z,3.30
2023-01-10T21:50:35.421Z,3.29
2023-01-10T21:55:38.141Z,3.22
2023-01-10T22:00:40.860Z,3.08
2023-01-10T22:05:43.700Z,2.96
2023-01-10T22:10:46.385Z,2.86
2023-01-10T22:15:49.416Z,2.86
2023-01-10T22:20:56.790Z,2.94
2023-01-10T22:26:05.824Z,2.92
2023-01-10T22:31:08.727Z,2.91
2023-01-10T22:36:16.747Z,2.96
2023-01-10T22:41:21.832Z,3.02
2023-01-10T22:46:25.048Z,3.09
2023-01-10T22:51:28.768Z,3.10
2023-01-10T22:56:31.661Z,3.12
2023-01-10T23:01:34.579Z,3.18
2023-01-10T23:06:37.285Z,3.27
2023-01-10T23:11:39.947Z,3.29
2023-01-10T23:16:43.088Z,3.32
2023-01-10T23:21:45.883Z,3.36
2023-01-10T23:26:50.001Z,3.32
2023-01-10T23:31:52.782Z,3.31
2023-01-10T23:36:55.583Z,3.38
2023-01-10T23:41:58.271Z,3.44
2023-01-10T23:47:01.020Z,3.50
2023-01-10T23:52:04.231Z,3.56
2023-01-10T23:57:06.848Z,3.65
